createdAt,value
2018-09-06T00:00:44.433Z,14.41
2018-09-06T00:03:16.486Z,14.34
2018-09-06T00:05:48.545Z,14.34
2018-09-06T00:08:20.669Z,14.39
2018-09-06T00:10:52.741Z,14.32
2018-09-06T00:13:24.768Z,14.25
2018-09-06T00:15:56.851Z,14.25
2018-09-06T00:18:28.893Z,14.30
2018-09-06T00:21:00.933Z,14.28
2018-09-06T00:23:33.113Z,14.23
2018-09-06T00:26:05.189Z,14.13
2018-09-06T00:28:37.225Z,14.12
2018-09-06T00:31:09.288Z,14.12
2018-09-06T00:33:41.369Z,14.13
2018-09-06T00:36:13.457Z,14.02
2018-09-06T00:38:45.468Z,13.93
2018-09-06T00:41:17.526Z,13.94
2018-09-06T00:43:49.562Z,13.98
2018-09-06T00:46:21.572Z,13.93
2018-09-06T00:48:53.692Z,13.91
2018-09-06T00:51:25.819Z,13.85
2018-09-06T00:53:57.836Z,13.88
2018-09-06T00:56:29.950Z,13.98
2018-09-06T00:59:02.039Z,14.13
2018-09-06T01:01:34.103Z,14.15
2018-09-06T01:04:06.143Z,14.04
2018-09-06T01:06:38.237Z,14.02
2018-09-06T01:09:10.278Z,13.88
2018-09-06T01:11:42.281Z,13.86
2018-09-06T01:14:14.389Z,13.81
2018-09-06T01:16:46.382Z,13.74
2018-09-06T01:19:18.387Z,13.73
2018-09-06T01:21:50.392Z,13.69
2018-09-06T01:24:22.466Z,13.65
2018-09-06T01:26:54.476Z,13.60
2018-09-06T01:29:26.492Z,13.60
2018-09-06T01:31:58.727Z,13.63
2018-09-06T01:34:30.913Z,13.62
2018-09-06T01:37:07.758Z,13.56
2018-09-06T01:39:40.208Z,13.68
2018-09-06T01:42:12.225Z,13.81
2018-09-06T01:44:44.257Z,13.77
2018-09-06T01:47:16.323Z,13.80
2018-09-06T01:49:48.352Z,13.93
2018-09-06T01:52:20.379Z,14.11
2018-09-06T01:54:52.476Z,13.99
2018-09-06T01:57:24.468Z,14.01
2018-09-06T01:59:56.491Z,13.98
2018-09-06T02:02:29.582Z,13.88
2018-09-06T02:05:01.583Z,13.87
2018-09-06T02:07:33.655Z,13.85
2018-09-06T02:10:05.662Z,13.77
2018-09-06T02:12:37.664Z,13.65
2018-09-06T02:15:09.713Z,13.58
2018-09-06T02:17:41.722Z,13.51
2018-09-06T02:20:13.748Z,13.49
2018-09-06T02:22:45.799Z,13.53
2018-09-06T02:25:17.897Z,13.50
2018-09-06T02:27:49.940Z,13.50
2018-09-06T02:30:21.994Z,13.38
2018-09-06T02:32:53.994Z,13.40
2018-09-06T02:35:26.031Z,13.37
2018-09-06T02:37:58.083Z,13.37
2018-09-06T02:40:35.897Z,13.39
2018-09-06T02:43:09.971Z,13.42
2018-09-06T02:45:43.220Z,13.41
2018-09-06T02:48:15.237Z,13.51
2018-09-06T02:50:52.750Z,13.15
2018-09-06T02:53:28.670Z,13.43
2018-09-06T02:56:00.638Z,13.51
2018-09-06T02:58:32.743Z,13.51
2018-09-06T03:01:04.924Z,13.64
2018-09-06T03:03:36.961Z,13.66
2018-09-06T03:06:09.097Z,13.67
2018-09-06T03:08:41.296Z,13.64
2018-09-06T03:11:15.642Z,13.58
2018-09-06T03:13:47.639Z,13.55
2018-09-06T03:16:19.753Z,13.54
2018-09-06T03:18:51.777Z,13.51
2018-09-06T03:21:23.750Z,13.45
2018-09-06T03:23:55.716Z,13.40
2018-09-06T03:26:27.776Z,13.43
2018-09-06T03:28:59.761Z,13.46
2018-09-06T03:31:31.828Z,13.37
2018-09-06T03:34:03.899Z,13.33
2018-09-06T03:36:35.972Z,13.36
2018-09-06T03:39:08.371Z,13.27
2018-09-06T03:41:40.457Z,13.26
2018-09-06T03:44:12.500Z,13.34
2018-09-06T03:46:44.588Z,13.35
2018-09-06T03:49:16.644Z,13.20
2018-09-06T03:51:48.662Z,13.09
2018-09-06T03:54:20.728Z,13.07
2018-09-06T03:56:52.714Z,13.04
2018-09-06T03:59:24.719Z,13.04
2018-09-06T04:01:56.831Z,13.06
2018-09-06T04:04:28.835Z,13.08
2018-09-06T04:07:00.937Z,13.14
2018-09-06T04:09:33.031Z,13.23
2018-09-06T04:12:05.058Z,13.23
2018-09-06T04:14:37.059Z,13.31
2018-09-06T04:17:09.079Z,13.30
2018-09-06T04:19:41.126Z,13.28
2018-09-06T04:22:13.161Z,13.30
2018-09-06T04:24:45.181Z,13.24
2018-09-06T04:27:17.176Z,13.24
2018-09-06T04:29:49.202Z,13.32
2018-09-06T04:32:21.190Z,13.36
2018-09-06T04:34:53.207Z,13.35
2018-09-06T04:37:25.218Z,13.37
2018-09-06T04:39:57.208Z,13.35
2018-09-06T04:42:29.300Z,13.35
2018-09-06T04:45:01.357Z,13.36
2018-09-06T04:47:33.363Z,13.39
2018-09-06T04:50:05.416Z,13.36
2018-09-06T04:52:37.423Z,13.29
2018-09-06T04:55:09.458Z,13.26
2018-09-06T04:57:41.465Z,13.23
2018-09-06T05:00:13.499Z,13.22
2018-09-06T05:02:45.531Z,13.26
2018-09-06T05:05:17.581Z,13.21
2018-09-06T05:07:49.607Z,13.22
2018-09-06T05:10:21.614Z,13.30
2018-09-06T05:12:53.633Z,13.35
2018-09-06T05:15:25.699Z,13.40
2018-09-06T05:17:57.809Z,13.43
2018-09-06T05:20:29.894Z,13.49
2018-09-06T05:23:02.661Z,13.54
2018-09-06T05:25:34.996Z,13.48
2018-09-06T05:28:07.010Z,13.63
2018-09-06T05:30:39.096Z,13.73
2018-09-06T05:33:11.034Z,13.84
2018-09-06T05:35:43.162Z,13.86
2018-09-06T05:38:15.205Z,13.98
2018-09-06T05:40:47.264Z,14.11
2018-09-06T05:43:19.299Z,14.31
2018-09-06T05:45:51.310Z,14.19
2018-09-06T05:48:23.330Z,14.22
2018-09-06T05:50:55.331Z,14.31
2018-09-06T05:53:27.368Z,14.47
2018-09-06T05:55:59.406Z,14.55
2018-09-06T05:58:31.580Z,14.58
2018-09-06T06:01:03.668Z,14.56
2018-09-06T06:03:35.634Z,14.68
2018-09-06T06:06:07.760Z,14.79
2018-09-06T06:08:41.836Z,14.99
2018-09-06T06:11:13.878Z,15.21
2018-09-06T06:13:45.943Z,15.27
2018-09-06T06:16:18.034Z,15.42
2018-09-06T06:18:50.108Z,15.62
2018-09-06T06:21:22.125Z,15.85
2018-09-06T06:23:54.086Z,15.99
2018-09-06T06:26:26.132Z,15.91
2018-09-06T06:28:58.103Z,16.05
2018-09-06T06:31:30.098Z,15.84
2018-09-06T06:34:02.126Z,15.75
2018-09-06T06:36:34.095Z,15.37
2018-09-06T06:39:08.245Z,15.38
2018-09-06T06:41:40.556Z,15.68
2018-09-06T06:44:12.522Z,16.04
2018-09-06T06:46:44.531Z,16.13
2018-09-06T06:49:16.500Z,16.17
2018-09-06T06:51:48.538Z,16.43
2018-09-06T06:54:20.547Z,16.61
2018-09-06T06:56:52.578Z,16.78
2018-09-06T06:59:24.910Z,17.09
2018-09-06T07:01:56.898Z,17.34
2018-09-06T07:04:28.916Z,17.80
2018-09-06T07:07:01.627Z,18.43
2018-09-06T07:09:33.607Z,18.80
2018-09-06T07:12:05.699Z,19.93
2018-09-06T07:14:37.754Z,20.00
2018-09-06T07:17:09.739Z,20.67
2018-09-06T07:19:41.758Z,21.78
2018-09-06T07:22:13.778Z,21.48
2018-09-06T07:24:45.776Z,21.25
2018-09-06T07:27:17.921Z,20.63
2018-09-06T07:29:49.903Z,19.87
2018-09-06T07:32:21.967Z,19.63
2018-09-06T07:34:54.012Z,20.11
2018-09-06T07:37:26.014Z,21.19
2018-09-06T07:39:58.085Z,22.24
2018-09-06T07:42:30.116Z,22.50
2018-09-06T07:45:02.471Z,23.25
2018-09-06T07:47:34.503Z,23.14
2018-09-06T07:50:06.555Z,23.80
2018-09-06T07:52:38.650Z,24.09
2018-09-06T07:55:10.671Z,24.14
2018-09-06T07:57:42.774Z,24.28
2018-09-06T08:00:14.802Z,24.58
2018-09-06T08:02:46.814Z,25.02
2018-09-06T08:05:18.902Z,25.15
2018-09-06T08:07:50.926Z,25.52
2018-09-06T08:10:22.983Z,25.45
2018-09-06T08:12:55.065Z,25.58
2018-09-06T08:15:27.093Z,25.18
2018-09-06T08:17:59.147Z,24.70
2018-09-06T08:20:31.222Z,24.02
2018-09-06T08:23:03.295Z,23.91
2018-09-06T08:25:35.312Z,24.27
2018-09-06T08:28:07.343Z,23.97
2018-09-06T08:30:39.454Z,23.82
2018-09-06T08:33:11.387Z,23.85
2018-09-06T08:35:43.422Z,24.11
2018-09-06T08:38:15.426Z,24.25
2018-09-06T08:40:47.432Z,24.16
2018-09-06T08:43:19.473Z,23.65
2018-09-06T08:45:51.511Z,23.59
2018-09-06T08:48:23.514Z,24.29
2018-09-06T08:50:55.542Z,23.26
2018-09-06T08:53:27.558Z,24.09
2018-09-06T08:55:59.538Z,24.33
2018-09-06T08:58:31.545Z,23.90
2018-09-06T09:01:09.182Z,24.06
2018-09-06T09:03:41.188Z,22.89
2018-09-06T09:06:13.252Z,23.80
2018-09-06T09:08:45.276Z,24.48
2018-09-06T09:11:17.384Z,23.69
2018-09-06T09:13:49.419Z,23.75
2018-09-06T09:16:21.398Z,23.76
2018-09-06T09:18:53.395Z,24.25
2018-09-06T09:21:25.554Z,24.19
2018-09-06T09:23:57.625Z,24.40
2018-09-06T09:26:29.655Z,24.46
2018-09-06T09:29:01.886Z,24.17
2018-09-06T09:31:33.913Z,25.25
2018-09-06T09:34:06.107Z,24.71
2018-09-06T09:36:38.128Z,25.00
2018-09-06T09:39:10.365Z,25.04
2018-09-06T09:41:42.387Z,25.41
2018-09-06T09:44:14.453Z,25.78
2018-09-06T09:49:18.027Z,26.04
2018-09-06T09:51:50.154Z,26.23
2018-09-06T09:54:22.221Z,26.53
2018-09-06T09:56:54.337Z,27.30
2018-09-06T09:59:26.337Z,26.91
2018-09-06T10:02:04.103Z,26.31
2018-09-06T10:04:39.342Z,26.93
2018-09-06T10:07:17.108Z,27.25
2018-09-06T10:09:49.272Z,28.13
2018-09-06T10:12:21.294Z,28.05
2018-09-06T10:14:53.280Z,28.09
2018-09-06T10:20:04.035Z,27.42
2018-09-06T10:22:36.166Z,27.48
2018-09-06T10:25:08.228Z,27.56
2018-09-06T10:27:40.345Z,27.09
2018-09-06T10:30:12.375Z,26.67
2018-09-06T10:32:44.435Z,25.98
2018-09-06T10:35:16.522Z,26.30
2018-09-06T10:37:48.560Z,27.06
2018-09-06T10:40:20.553Z,27.31
2018-09-06T10:42:52.554Z,27.28
2018-09-06T10:45:24.548Z,27.75
2018-09-06T10:47:56.600Z,27.81
2018-09-06T10:50:28.581Z,28.15
2018-09-06T10:53:00.642Z,28.06
2018-09-06T10:55:32.658Z,28.24
2018-09-06T10:58:04.710Z,27.76
2018-09-06T11:00:36.725Z,27.37
2018-09-06T11:03:08.823Z,27.52
2018-09-06T11:05:40.846Z,27.56
2018-09-06T11:08:12.963Z,28.25
2018-09-06T11:10:44.985Z,27.87
2018-09-06T11:13:17.161Z,27.67
2018-09-06T11:15:49.143Z,27.96
2018-09-06T11:18:21.128Z,27.81
2018-09-06T11:20:53.131Z,27.86
2018-09-06T11:23:25.221Z,27.72
2018-09-06T11:25:57.224Z,28.44
2018-09-06T11:28:29.254Z,29.13
2018-09-06T11:31:01.311Z,28.43
2018-09-06T11:33:33.339Z,28.19
2018-09-06T11:36:05.384Z,27.87
2018-09-06T11:38:37.415Z,28.75
2018-09-06T11:41:09.474Z,29.50
2018-09-06T11:43:41.533Z,29.30
2018-09-06T11:46:13.598Z,28.80
2018-09-06T11:48:45.626Z,29.34
2018-09-06T11:51:17.670Z,28.89
2018-09-06T11:53:49.700Z,28.96
2018-09-06T11:56:21.759Z,28.75
2018-09-06T11:58:53.991Z,28.73
2018-09-06T12:01:26.200Z,28.02
2018-09-06T12:03:58.279Z,28.37
2018-09-06T12:06:30.287Z,28.08
2018-09-06T12:09:02.452Z,28.32
2018-09-06T12:11:35.219Z,28.68
2018-09-06T12:14:07.254Z,28.68
2018-09-06T12:16:39.266Z,28.34
2018-09-06T12:19:11.306Z,28.52
2018-09-06T12:21:43.346Z,28.28
2018-09-06T12:24:15.413Z,28.30
2018-09-06T12:26:47.464Z,28.34
2018-09-06T12:29:19.484Z,28.36
2018-09-06T12:31:51.561Z,28.45
2018-09-06T12:34:23.575Z,28.29
2018-09-06T12:36:55.675Z,28.91
2018-09-06T12:39:27.696Z,28.70
2018-09-06T12:41:59.766Z,28.59
2018-09-06T12:44:31.843Z,28.55
2018-09-06T12:47:03.926Z,28.18
2018-09-06T12:49:36.026Z,28.70
2018-09-06T12:52:08.039Z,28.51
2018-09-06T12:54:40.141Z,29.33
2018-09-06T12:57:12.155Z,29.98
2018-09-06T12:59:44.220Z,28.77
2018-09-06T13:02:16.259Z,29.86
2018-09-06T13:04:48.468Z,30.17
2018-09-06T13:07:20.490Z,30.02
2018-09-06T13:09:52.532Z,30.47
2018-09-06T13:12:24.534Z,31.18
2018-09-06T13:15:03.303Z,31.27
2018-09-06T13:17:35.318Z,31.84
2018-09-06T13:20:07.402Z,31.96
2018-09-06T13:22:39.416Z,32.63
2018-09-06T13:25:11.443Z,33.02
2018-09-06T13:27:43.550Z,31.45
2018-09-06T13:30:15.562Z,31.39
2018-09-06T13:32:47.693Z,30.95
2018-09-06T13:35:19.721Z,32.26
2018-09-06T13:37:51.761Z,33.09
2018-09-06T13:40:23.771Z,32.68
2018-09-06T13:42:55.760Z,32.15
2018-09-06T13:45:27.771Z,32.53
2018-09-06T13:47:59.772Z,33.22
2018-09-06T13:50:31.804Z,34.48
2018-09-06T13:53:03.804Z,31.54
2018-09-06T13:55:35.803Z,31.80
2018-09-06T13:58:07.803Z,30.84
2018-09-06T14:00:39.802Z,31.05
2018-09-06T14:03:11.827Z,32.07
2018-09-06T14:05:43.876Z,33.23
2018-09-06T14:08:15.843Z,33.09
2018-09-06T14:10:47.918Z,31.74
2018-09-06T14:13:19.990Z,32.22
2018-09-06T14:15:51.990Z,32.91
2018-09-06T14:18:24.044Z,33.22
2018-09-06T14:20:56.120Z,33.71
2018-09-06T14:23:30.310Z,33.55
2018-09-06T14:26:03.750Z,31.93
2018-09-06T14:28:37.227Z,32.69
2018-09-06T14:31:09.360Z,31.40
2018-09-06T14:33:41.348Z,30.96
2018-09-06T14:36:13.363Z,31.49
2018-09-06T14:39:48.651Z,32.12
2018-09-06T14:42:20.660Z,31.51
2018-09-06T14:44:52.779Z,30.32
2018-09-06T14:47:24.786Z,30.19
2018-09-06T14:49:56.779Z,29.17
2018-09-06T14:52:28.819Z,29.57
2018-09-06T14:55:00.826Z,29.70
2018-09-06T14:57:32.829Z,29.73
2018-09-06T15:00:04.911Z,29.39
2018-09-06T15:02:36.979Z,29.69
2018-09-06T15:05:09.033Z,29.99
2018-09-06T15:07:41.031Z,30.24
2018-09-06T15:10:13.049Z,29.97
2018-09-06T15:12:45.051Z,29.51
2018-09-06T15:15:17.136Z,29.46
2018-09-06T15:17:49.181Z,29.16
2018-09-06T15:20:21.183Z,28.85
2018-09-06T15:22:53.184Z,29.14
2018-09-06T15:25:25.183Z,29.67
2018-09-06T15:27:57.238Z,29.73
2018-09-06T15:30:29.258Z,29.84
2018-09-06T15:33:01.324Z,29.38
2018-09-06T15:35:33.398Z,28.98
2018-09-06T15:38:06.001Z,28.96
2018-09-06T15:40:38.076Z,28.80
2018-09-06T15:43:12.051Z,28.04
2018-09-06T15:45:44.229Z,27.98
2018-09-06T15:48:16.418Z,27.58
2018-09-06T15:50:48.639Z,27.91
2018-09-06T15:53:20.811Z,27.75
2018-09-06T15:55:53.069Z,27.82
2018-09-06T15:58:32.027Z,27.59
2018-09-06T16:01:04.162Z,27.46
2018-09-06T16:03:36.337Z,26.99
2018-09-06T16:06:08.480Z,26.97
2018-09-06T16:08:40.631Z,26.85
2018-09-06T16:11:12.761Z,26.62
2018-09-06T16:13:45.045Z,26.54
2018-09-06T16:16:17.161Z,26.43
2018-09-06T16:18:49.901Z,26.29
2018-09-06T16:21:22.046Z,26.11
2018-09-06T16:23:54.147Z,25.96
2018-09-06T16:26:26.241Z,25.77
2018-09-06T16:28:58.422Z,25.83
2018-09-06T16:31:30.821Z,25.49
2018-09-06T16:34:03.014Z,25.14
2018-09-06T16:36:35.159Z,24.85
2018-09-06T16:39:08.474Z,24.64
2018-09-06T16:41:41.067Z,24.40
2018-09-06T16:44:14.256Z,24.27
2018-09-06T16:46:46.335Z,24.18
2018-09-06T16:49:18.448Z,24.05
2018-09-06T16:51:50.533Z,23.93
2018-09-06T16:54:22.728Z,23.83
2018-09-06T16:56:54.851Z,23.60
2018-09-06T16:59:26.978Z,23.39
2018-09-06T17:01:59.396Z,23.29
2018-09-06T17:04:31.573Z,23.22
2018-09-06T17:07:03.672Z,23.02
2018-09-06T17:09:35.749Z,22.84
2018-09-06T17:12:07.882Z,22.60
2018-09-06T17:14:40.213Z,22.44
2018-09-06T17:17:12.316Z,22.29
2018-09-06T17:19:44.411Z,22.15
2018-09-06T17:22:16.451Z,22.05
2018-09-06T17:24:48.507Z,21.95
2018-09-06T17:27:20.948Z,21.82
2018-09-06T17:29:53.133Z,21.80
2018-09-06T17:32:25.338Z,21.71
2018-09-06T17:34:57.371Z,21.57
2018-09-06T17:37:29.491Z,21.41
2018-09-06T17:40:01.638Z,21.31
2018-09-06T17:42:34.073Z,21.19
2018-09-06T17:45:06.205Z,20.98
2018-09-06T17:47:38.343Z,20.87
2018-09-06T17:50:10.506Z,20.77
2018-09-06T17:52:42.603Z,20.66
2018-09-06T17:55:14.676Z,20.49
2018-09-06T17:57:46.732Z,20.41
2018-09-06T18:00:18.843Z,20.30
2018-09-06T18:02:51.018Z,20.23
2018-09-06T18:05:23.136Z,20.15
2018-09-06T18:07:55.317Z,20.02
2018-09-06T18:10:27.409Z,19.97
2018-09-06T18:12:59.534Z,19.87
2018-09-06T18:15:31.614Z,19.77
2018-09-06T18:18:03.842Z,19.69
2018-09-06T18:20:36.020Z,19.62
2018-09-06T18:23:08.123Z,19.53
2018-09-06T18:25:40.209Z,19.38
2018-09-06T18:28:12.381Z,19.23
2018-09-06T18:30:44.439Z,19.04
2018-09-06T18:33:16.656Z,18.85
2018-09-06T18:35:48.922Z,18.62
2018-09-06T18:38:21.028Z,18.55
2018-09-06T18:40:53.134Z,18.46
2018-09-06T18:43:25.209Z,18.51
2018-09-06T18:45:57.345Z,18.67
2018-09-06T18:48:29.444Z,18.62
2018-09-06T18:51:01.603Z,18.60
2018-09-06T18:53:33.739Z,18.52
2018-09-06T18:56:05.917Z,18.29
2018-09-06T18:58:38.110Z,18.23
2018-09-06T19:01:10.262Z,18.16
2018-09-06T19:03:42.379Z,18.07
2018-09-06T19:06:14.508Z,17.89
2018-09-06T19:08:46.566Z,17.84
2018-09-06T19:11:19.052Z,17.80
2018-09-06T19:13:51.128Z,17.93
2018-09-06T19:16:23.344Z,17.91
2018-09-06T19:18:55.547Z,17.77
2018-09-06T19:21:27.897Z,17.59
2018-09-06T19:24:00.213Z,17.43
2018-09-06T19:26:32.333Z,17.31
2018-09-06T19:29:04.433Z,17.26
2018-09-06T19:31:36.545Z,17.23
2018-09-06T19:34:08.653Z,17.18
2018-09-06T19:36:40.802Z,17.19
2018-09-06T19:39:12.986Z,17.13
2018-09-06T19:41:45.120Z,17.15
2018-09-06T19:44:17.285Z,17.02
2018-09-06T19:46:49.469Z,16.83
2018-09-06T19:49:21.572Z,16.78
2018-09-06T19:51:53.656Z,16.76
2018-09-06T19:54:25.868Z,16.78
2018-09-06T19:56:57.933Z,16.75
2018-09-06T19:59:30.185Z,16.96
2018-09-06T20:02:02.446Z,16.85
2018-09-06T20:04:34.526Z,16.84
2018-09-06T20:07:06.677Z,16.71
2018-09-06T20:09:38.804Z,16.62
2018-09-06T20:12:10.922Z,16.50
2018-09-06T20:14:43.073Z,16.61
2018-09-06T20:17:15.197Z,16.66
2018-09-06T20:19:47.301Z,16.53
2018-09-06T20:22:19.438Z,16.43
2018-09-06T20:24:51.541Z,16.36
2018-09-06T20:27:24.423Z,16.41
2018-09-06T20:29:56.511Z,16.44
2018-09-06T20:32:28.576Z,16.35
2018-09-06T20:35:00.708Z,16.31
2018-09-06T20:37:32.775Z,16.19
2018-09-06T20:40:04.956Z,16.14
2018-09-06T20:42:37.127Z,16.15
2018-09-06T20:45:09.233Z,16.10
2018-09-06T20:47:41.396Z,15.96
2018-09-06T20:50:13.684Z,15.84
2018-09-06T20:52:45.811Z,15.80
2018-09-06T20:55:17.910Z,15.83
2018-09-06T20:57:50.061Z,15.81
2018-09-06T21:00:22.255Z,15.58
2018-09-06T21:02:55.443Z,15.57
2018-09-06T21:05:27.612Z,15.53
2018-09-06T21:07:59.815Z,15.62
2018-09-06T21:10:32.003Z,15.60
2018-09-06T21:13:04.115Z,15.55
2018-09-06T21:15:36.322Z,15.50
2018-09-06T21:18:08.761Z,15.56
2018-09-06T21:20:40.940Z,15.65
2018-09-06T21:23:13.142Z,15.52
2018-09-06T21:25:45.307Z,15.32
2018-09-06T21:28:17.414Z,15.26
2018-09-06T21:30:49.581Z,15.20
2018-09-06T21:33:21.676Z,15.21
2018-09-06T21:35:53.777Z,15.13
2018-09-06T21:38:26.464Z,15.05
2018-09-06T21:40:58.562Z,14.93
2018-09-06T21:43:31.345Z,14.90
2018-09-06T21:46:03.759Z,14.78
2018-09-06T21:48:35.821Z,14.82
2018-09-06T21:51:08.656Z,14.84
2018-09-06T21:53:40.756Z,14.79
2018-09-06T21:56:12.862Z,14.83
2018-09-06T21:58:44.911Z,14.87
2018-09-06T22:01:17.019Z,14.75
2018-09-06T22:03:54.740Z,14.69
2018-09-06T22:06:26.839Z,14.57
2018-09-06T22:08:58.932Z,14.61
2018-09-06T22:11:31.012Z,14.86
2018-09-06T22:14:03.104Z,14.92
2018-09-06T22:16:35.209Z,14.77
2018-09-06T22:19:07.758Z,14.66
2018-09-06T22:21:39.935Z,14.63
2018-09-06T22:24:12.011Z,14.65
2018-09-06T22:26:44.164Z,14.69
2018-09-06T22:29:16.288Z,14.83
2018-09-06T22:31:48.391Z,15.08
2018-09-06T22:34:20.596Z,15.22
2018-09-06T22:36:52.791Z,15.48
2018-09-06T22:39:24.874Z,15.56
2018-09-06T22:41:57.029Z,15.58
2018-09-06T22:44:29.121Z,15.59
2018-09-06T22:47:01.263Z,15.59
2018-09-06T22:49:33.397Z,15.50
2018-09-06T22:52:05.544Z,15.77
2018-09-06T22:54:37.578Z,15.86
2018-09-06T22:57:09.624Z,15.85
2018-09-06T22:59:41.656Z,15.77
2018-09-06T23:02:13.778Z,15.61
2018-09-06T23:04:45.825Z,15.58
2018-09-06T23:07:17.909Z,15.52
2018-09-06T23:09:49.962Z,15.54
2018-09-06T23:12:22.010Z,15.49
2018-09-06T23:14:54.051Z,15.52
2018-09-06T23:17:26.103Z,15.55
2018-09-06T23:19:58.231Z,15.55
2018-09-06T23:22:30.381Z,15.57
2018-09-06T23:25:02.428Z,15.66
2018-09-06T23:27:34.484Z,15.72
2018-09-06T23:30:06.824Z,15.77
2018-09-06T23:32:38.983Z,15.83
2018-09-06T23:35:11.079Z,15.86
2018-09-06T23:37:43.207Z,15.78
2018-09-06T23:40:15.288Z,15.80
2018-09-06T23:42:47.377Z,15.82
2018-09-06T23:45:19.537Z,15.77
2018-09-06T23:47:51.575Z,15.79
2018-09-06T23:50:23.633Z,15.86
2018-09-06T23:52:55.689Z,15.87
2018-09-06T23:55:27.739Z,15.68
2018-09-06T23:57:59.820Z,15.97
